sensor_id;sensor_type;location;lat;lon;timestamp;temperature;humidity
66343;DHT22;53144;51.524;5.080;2022-07-11T00:02:04;15.97;89.32
66343;DHT22;53144;51.524;5.080;2022-07-11T00:04:31;15.93;89.48
66343;DHT22;53144;51.524;5.080;2022-07-11T00:06:58;15.94;89.49
66343;DHT22;53144;51.524;5.080;2022-07-11T00:09:24;15.93;89.64
66343;DHT22;53144;51.524;5.080;2022-07-11T00:11:49;15.85;89.85
66343;DHT22;53144;51.524;5.080;2022-07-11T00:14:15;15.88;89.81
66343;DHT22;53144;51.524;5.080;2022-07-11T00:16:41;15.87;89.90
66343;DHT22;53144;51.524;5.080;2022-07-11T00:19:06;15.81;90.32
66343;DHT22;53144;51.524;5.080;2022-07-11T00:21:32;15.85;90.27
66343;DHT22;53144;51.524;5.080;2022-07-11T00:23:59;15.84;90.11
66343;DHT22;53144;51.524;5.080;2022-07-11T00:26:24;15.85;90.10
66343;DHT22;53144;51.524;5.080;2022-07-11T00:28:49;15.83;90.49
66343;DHT22;53144;51.524;5.080;2022-07-11T00:31:15;15.78;90.35
66343;DHT22;53144;51.524;5.080;2022-07-11T00:33:40;15.80;90.19
66343;DHT22;53144;51.524;5.080;2022-07-11T00:36:06;15.73;90.33
66343;DHT22;53144;51.524;5.080;2022-07-11T00:38:31;15.73;90.61
66343;DHT22;53144;51.524;5.080;2022-07-11T00:40:57;15.67;90.77
66343;DHT22;53144;51.524;5.080;2022-07-11T00:43:36;15.63;91.23
66343;DHT22;53144;51.524;5.080;2022-07-11T00:46:02;15.60;91.25
66343;DHT22;53144;51.524;5.080;2022-07-11T00:48:28;15.53;91.60
66343;DHT22;53144;51.524;5.080;2022-07-11T00:50:54;15.51;91.51
66343;DHT22;53144;51.524;5.080;2022-07-11T00:53:20;15.56;92.14
66343;DHT22;53144;51.524;5.080;2022-07-11T00:55:47;15.53;92.04
66343;DHT22;53144;51.524;5.080;2022-07-11T00:58:13;15.47;92.02
66343;DHT22;53144;51.524;5.080;2022-07-11T01:00:39;15.47;92.27
66343;DHT22;53144;51.524;5.080;2022-07-11T01:03:04;15.50;92.24
66343;DHT22;53144;51.524;5.080;2022-07-11T01:05:30;15.46;92.53
66343;DHT22;53144;51.524;5.080;2022-07-11T01:07:55;15.37;92.53
66343;DHT22;53144;51.524;5.080;2022-07-11T01:10:22;15.40;92.68
66343;DHT22;53144;51.524;5.080;2022-07-11T01:12:47;15.36;92.81
66343;DHT22;53144;51.524;5.080;2022-07-11T01:15:16;15.40;92.91
66343;DHT22;53144;51.524;5.080;2022-07-11T01:17:42;15.39;93.07
66343;DHT22;53144;51.524;5.080;2022-07-11T01:20:09;15.40;93.08
66343;DHT22;53144;51.524;5.080;2022-07-11T01:22:47;15.37;93.23
66343;DHT22;53144;51.524;5.080;2022-07-11T01:25:16;15.37;93.16
66343;DHT22;53144;51.524;5.080;2022-07-11T01:27:59;15.32;93.32
66343;DHT22;53144;51.524;5.080;2022-07-11T01:30:25;15.36;93.58
66343;DHT22;53144;51.524;5.080;2022-07-11T01:32:52;15.33;93.68
66343;DHT22;53144;51.524;5.080;2022-07-11T01:35:18;15.40;93.58
66343;DHT22;53144;51.524;5.080;2022-07-11T01:37:44;15.40;93.69
66343;DHT22;53144;51.524;5.080;2022-07-11T01:40:10;15.43;93.77
66343;DHT22;53144;51.524;5.080;2022-07-11T01:42:35;15.44;93.50
66343;DHT22;53144;51.524;5.080;2022-07-11T01:45:01;15.54;93.44
66343;DHT22;53144;51.524;5.080;2022-07-11T01:47:27;15.56;93.23
66343;DHT22;53144;51.524;5.080;2022-07-11T01:49:53;15.54;93.19
66343;DHT22;53144;51.524;5.080;2022-07-11T01:52:18;15.54;93.18
66343;DHT22;53144;51.524;5.080;2022-07-11T01:54:43;15.58;93.03
66343;DHT22;53144;51.524;5.080;2022-07-11T01:57:09;15.53;93.32
66343;DHT22;53144;51.524;5.080;2022-07-11T01:59:35;15.53;93.34
66343;DHT22;53144;51.524;5.080;2022-07-11T02:02:01;15.54;93.35
66343;DHT22;53144;51.524;5.080;2022-07-11T02:04:27;15.53;93.19
66343;DHT22;53144;51.524;5.080;2022-07-11T02:06:52;15.40;93.39
66343;DHT22;53144;51.524;5.080;2022-07-11T02:09:18;15.40;93.56
66343;DHT22;53144;51.524;5.080;2022-07-11T02:11:43;15.39;93.56
66343;DHT22;53144;51.524;5.080;2022-07-11T02:14:08;15.33;93.61
66343;DHT22;53144;51.524;5.080;2022-07-11T02:16:34;15.35;93.73
66343;DHT22;53144;51.524;5.080;2022-07-11T02:18:59;15.30;93.79
66343;DHT22;53144;51.524;5.080;2022-07-11T02:21:25;15.26;93.79
66343;DHT22;53144;51.524;5.080;2022-07-11T02:23:50;15.25;93.99
66343;DHT22;53144;51.524;5.080;2022-07-11T02:26:16;15.22;94.06
66343;DHT22;53144;51.524;5.080;2022-07-11T02:28:41;15.25;94.10
66343;DHT22;53144;51.524;5.080;2022-07-11T02:31:07;15.23;94.19
66343;DHT22;53144;51.524;5.080;2022-07-11T02:33:33;15.23;94.38
66343;DHT22;53144;51.524;5.080;2022-07-11T02:35:59;15.20;94.29
66343;DHT22;53144;51.524;5.080;2022-07-11T02:38:25;15.20;94.27
66343;DHT22;53144;51.524;5.080;2022-07-11T02:40:52;15.20;94.21
66343;DHT22;53144;51.524;5.080;2022-07-11T02:43:17;15.22;94.20
66343;DHT22;53144;51.524;5.080;2022-07-11T02:45:43;15.19;94.41
66343;DHT22;53144;51.524;5.080;2022-07-11T02:48:08;15.12;94.23
66343;DHT22;53144;51.524;5.080;2022-07-11T02:50:34;15.10;94.60
66343;DHT22;53144;51.524;5.080;2022-07-11T02:52:59;15.08;94.69
66343;DHT22;53144;51.524;5.080;2022-07-11T02:55:24;15.10;94.49
66343;DHT22;53144;51.524;5.080;2022-07-11T02:57:50;14.99;94.61
66343;DHT22;53144;51.524;5.080;2022-07-11T03:00:16;14.98;94.60
66343;DHT22;53144;51.524;5.080;2022-07-11T03:02:42;14.93;94.93
66343;DHT22;53144;51.524;5.080;2022-07-11T03:05:08;14.98;94.98
66343;DHT22;53144;51.524;5.080;2022-07-11T03:07:34;14.98;95.25
66343;DHT22;53144;51.524;5.080;2022-07-11T03:09:59;14.98;95.17
66343;DHT22;53144;51.524;5.080;2022-07-11T03:12:24;15.00;95.29
66343;DHT22;53144;51.524;5.080;2022-07-11T03:14:50;15.06;95.23
66343;DHT22;53144;51.524;5.080;2022-07-11T03:17:16;15.06;95.19
66343;DHT22;53144;51.524;5.080;2022-07-11T03:19:42;15.08;95.17
66343;DHT22;53144;51.524;5.080;2022-07-11T03:22:07;15.12;95.20
66343;DHT22;53144;51.524;5.080;2022-07-11T03:24:33;15.12;95.02
66343;DHT22;53144;51.524;5.080;2022-07-11T03:26:58;15.09;95.27
66343;DHT22;53144;51.524;5.080;2022-07-11T03:29:24;15.15;94.95
66343;DHT22;53144;51.524;5.080;2022-07-11T03:31:49;15.18;94.80
66343;DHT22;53144;51.524;5.080;2022-07-11T03:34:14;15.20;94.73
66343;DHT22;53144;51.524;5.080;2022-07-11T03:36:40;15.25;94.71
66343;DHT22;53144;51.524;5.080;2022-07-11T03:39:05;15.29;94.54
66343;DHT22;53144;51.524;5.080;2022-07-11T03:41:31;15.32;94.54
66343;DHT22;53144;51.524;5.080;2022-07-11T03:43:56;15.36;94.65
66343;DHT22;53144;51.524;5.080;2022-07-11T03:46:22;15.37;94.49
66343;DHT22;53144;51.524;5.080;2022-07-11T03:48:48;15.40;94.59
66343;DHT22;53144;51.524;5.080;2022-07-11T03:51:14;15.47;94.20
66343;DHT22;53144;51.524;5.080;2022-07-11T03:53:40;15.42;94.20
66343;DHT22;53144;51.524;5.080;2022-07-11T03:56:05;15.44;94.35
66343;DHT22;53144;51.524;5.080;2022-07-11T03:58:30;15.42;94.38
66343;DHT22;53144;51.524;5.080;2022-07-11T04:00:57;15.42;94.45
66343;DHT22;53144;51.524;5.080;2022-07-11T04:03:23;15.44;94.39
66343;DHT22;53144;51.524;5.080;2022-07-11T04:05:49;15.49;94.28
66343;DHT22;53144;51.524;5.080;2022-07-11T04:08:15;15.51;94.21
66343;DHT22;53144;51.524;5.080;2022-07-11T04:10:40;15.54;94.12
66343;DHT22;53144;51.524;5.080;2022-07-11T04:13:06;15.61;94.19
66343;DHT22;53144;51.524;5.080;2022-07-11T04:15:31;15.63;94.04
66343;DHT22;53144;51.524;5.080;2022-07-11T04:17:56;15.60;94.14
66343;DHT22;53144;51.524;5.080;2022-07-11T04:20:22;15.71;93.85
66343;DHT22;53144;51.524;5.080;2022-07-11T04:22:47;15.77;93.58
66343;DHT22;53144;51.524;5.080;2022-07-11T04:25:12;15.74;93.56
66343;DHT22;53144;51.524;5.080;2022-07-11T04:27:38;15.74;93.41
66343;DHT22;53144;51.524;5.080;2022-07-11T04:30:04;15.77;93.35
66343;DHT22;53144;51.524;5.080;2022-07-11T04:32:29;15.81;93.12
66343;DHT22;53144;51.524;5.080;2022-07-11T04:34:54;15.90;93.04
66343;DHT22;53144;51.524;5.080;2022-07-11T04:37:20;15.88;92.94
66343;DHT22;53144;51.524;5.080;2022-07-11T04:39:45;16.01;92.74
66343;DHT22;53144;51.524;5.080;2022-07-11T04:42:13;16.01;92.36
66343;DHT22;53144;51.524;5.080;2022-07-11T04:44:38;15.97;92.25
66343;DHT22;53144;51.524;5.080;2022-07-11T04:47:04;15.98;92.31
66343;DHT22;53144;51.524;5.080;2022-07-11T04:49:29;16.04;92.08
66343;DHT22;53144;51.524;5.080;2022-07-11T04:51:55;16.11;92.23
66343;DHT22;53144;51.524;5.080;2022-07-11T04:54:22;16.16;91.69
66343;DHT22;53144;51.524;5.080;2022-07-11T04:56:48;16.04;91.50
66343;DHT22;53144;51.524;5.080;2022-07-11T04:59:13;16.01;91.63
66343;DHT22;53144;51.524;5.080;2022-07-11T05:01:38;16.18;91.42
66343;DHT22;53144;51.524;5.080;2022-07-11T05:04:04;16.04;91.44
66343;DHT22;53144;51.524;5.080;2022-07-11T05:06:29;16.11;91.25
66343;DHT22;53144;51.524;5.080;2022-07-11T05:08:55;16.05;90.92
66343;DHT22;53144;51.524;5.080;2022-07-11T05:11:20;16.22;90.85
66343;DHT22;53144;51.524;5.080;2022-07-11T05:13:46;16.21;90.38
66343;DHT22;53144;51.524;5.080;2022-07-11T05:16:12;16.29;90.30
66343;DHT22;53144;51.524;5.080;2022-07-11T05:18:38;16.33;90.50
66343;DHT22;53144;51.524;5.080;2022-07-11T05:21:04;16.39;90.46
66343;DHT22;53144;51.524;5.080;2022-07-11T05:23:29;16.33;90.26
66343;DHT22;53144;51.524;5.080;2022-07-11T05:25:54;16.52;89.65
66343;DHT22;53144;51.524;5.080;2022-07-11T05:28:20;16.51;90.66
66343;DHT22;53144;51.524;5.080;2022-07-11T05:30:45;16.53;90.12
66343;DHT22;53144;51.524;5.080;2022-07-11T05:33:11;16.60;90.01
66343;DHT22;53144;51.524;5.080;2022-07-11T05:35:36;16.66;89.90
66343;DHT22;53144;51.524;5.080;2022-07-11T05:38:02;16.62;90.39
66343;DHT22;53144;51.524;5.080;2022-07-11T05:40:27;16.62;90.38
66343;DHT22;53144;51.524;5.080;2022-07-11T05:42:52;16.56;90.68
66343;DHT22;53144;51.524;5.080;2022-07-11T05:45:18;16.62;90.64
66343;DHT22;53144;51.524;5.080;2022-07-11T05:47:43;16.60;90.71
66343;DHT22;53144;51.524;5.080;2022-07-11T05:50:09;16.53;90.99
66343;DHT22;53144;51.524;5.080;2022-07-11T05:52:34;16.51;91.48
66343;DHT22;53144;51.524;5.080;2022-07-11T05:55:00;16.57;91.20
66343;DHT22;53144;51.524;5.080;2022-07-11T05:57:25;16.72;91.27
66343;DHT22;53144;51.524;5.080;2022-07-11T05:59:51;16.43;92.21
66343;DHT22;53144;51.524;5.080;2022-07-11T06:02:16;16.49;92.17
66343;DHT22;53144;51.524;5.080;2022-07-11T06:04:43;16.70;91.55
66343;DHT22;53144;51.524;5.080;2022-07-11T06:07:10;16.67;91.82
66343;DHT22;53144;51.524;5.080;2022-07-11T06:09:35;16.59;92.24
66343;DHT22;53144;51.524;5.080;2022-07-11T06:12:01;16.49;92.36
66343;DHT22;53144;51.524;5.080;2022-07-11T06:14:26;16.49;92.81
66343;DHT22;53144;51.524;5.080;2022-07-11T06:16:52;16.64;92.84
66343;DHT22;53144;51.524;5.080;2022-07-11T06:19:17;16.60;92.34
66343;DHT22;53144;51.524;5.080;2022-07-11T06:21:42;16.69;92.30
66343;DHT22;53144;51.524;5.080;2022-07-11T06:24:08;16.69;92.64
66343;DHT22;53144;51.524;5.080;2022-07-11T06:26:34;16.63;92.62
66343;DHT22;53144;51.524;5.080;2022-07-11T06:28:59;16.74;92.69
66343;DHT22;53144;51.524;5.080;2022-07-11T06:31:24;16.83;92.23
66343;DHT22;53144;51.524;5.080;2022-07-11T06:33:50;16.85;92.22
66343;DHT22;53144;51.524;5.080;2022-07-11T06:36:23;16.84;92.38
66343;DHT22;53144;51.524;5.080;2022-07-11T06:38:50;16.83;92.38
66343;DHT22;53144;51.524;5.080;2022-07-11T06:41:15;16.91;92.28
66343;DHT22;53144;51.524;5.080;2022-07-11T06:43:41;16.77;92.43
66343;DHT22;53144;51.524;5.080;2022-07-11T06:46:06;16.88;92.16
66343;DHT22;53144;51.524;5.080;2022-07-11T06:48:32;16.83;91.87
66343;DHT22;53144;51.524;5.080;2022-07-11T06:50:57;16.76;91.96
66343;DHT22;53144;51.524;5.080;2022-07-11T06:53:22;16.91;92.04
66343;DHT22;53144;51.524;5.080;2022-07-11T06:55:48;17.00;91.51
66343;DHT22;53144;51.524;5.080;2022-07-11T06:58:13;17.14;91.66
66343;DHT22;53144;51.524;5.080;2022-07-11T07:01:00;17.10;90.47
66343;DHT22;53144;51.524;5.080;2022-07-11T07:03:27;17.11;90.55
66343;DHT22;53144;51.524;5.080;2022-07-11T07:05:53;17.13;89.94
66343;DHT22;53144;51.524;5.080;2022-07-11T07:08:24;17.20;89.74
66343;DHT22;53144;51.524;5.080;2022-07-11T07:10:50;17.20;89.72
66343;DHT22;53144;51.524;5.080;2022-07-11T07:13:16;17.34;89.63
66343;DHT22;53144;51.524;5.080;2022-07-11T07:15:41;17.35;89.75
66343;DHT22;53144;51.524;5.080;2022-07-11T07:18:07;17.36;88.85
66343;DHT22;53144;51.524;5.080;2022-07-11T07:20:32;17.41;88.25
66343;DHT22;53144;51.524;5.080;2022-07-11T07:22:58;17.49;88.73
66343;DHT22;53144;51.524;5.080;2022-07-11T07:25:24;17.62;88.42
66343;DHT22;53144;51.524;5.080;2022-07-11T07:27:49;17.61;87.52
66343;DHT22;53144;51.524;5.080;2022-07-11T07:30:15;17.73;87.14
66343;DHT22;53144;51.524;5.080;2022-07-11T07:32:40;17.78;86.76
66343;DHT22;53144;51.524;5.080;2022-07-11T07:35:06;17.96;86.03
66343;DHT22;53144;51.524;5.080;2022-07-11T07:37:31;17.81;86.44
66343;DHT22;53144;51.524;5.080;2022-07-11T07:39:57;17.63;86.59
66343;DHT22;53144;51.524;5.080;2022-07-11T07:42:22;17.68;87.46
66343;DHT22;53144;51.524;5.080;2022-07-11T07:44:48;17.83;86.82
66343;DHT22;53144;51.524;5.080;2022-07-11T07:47:13;17.89;86.83
66343;DHT22;53144;51.524;5.080;2022-07-11T07:49:38;17.85;86.74
66343;DHT22;53144;51.524;5.080;2022-07-11T07:52:04;17.66;86.79
66343;DHT22;53144;51.524;5.080;2022-07-11T07:54:29;17.52;87.85
66343;DHT22;53144;51.524;5.080;2022-07-11T07:56:55;17.65;87.32
66343;DHT22;53144;51.524;5.080;2022-07-11T07:59:24;17.59;87.12
66343;DHT22;53144;51.524;5.080;2022-07-11T08:01:51;17.82;86.64
66343;DHT22;53144;51.524;5.080;2022-07-11T08:04:17;17.82;86.80
66343;DHT22;53144;51.524;5.080;2022-07-11T08:06:42;17.94;86.35
66343;DHT22;53144;51.524;5.080;2022-07-11T08:09:08;18.17;85.42
66343;DHT22;53144;51.524;5.080;2022-07-11T08:11:34;18.20;85.75
66343;DHT22;53144;51.524;5.080;2022-07-11T08:14:01;18.11;85.40
66343;DHT22;53144;51.524;5.080;2022-07-11T08:16:29;18.18;84.88
66343;DHT22;53144;51.524;5.080;2022-07-11T08:18:56;18.54;84.68
66343;DHT22;53144;51.524;5.080;2022-07-11T08:21:22;18.51;84.49
66343;DHT22;53144;51.524;5.080;2022-07-11T08:23:47;18.40;84.62
66343;DHT22;53144;51.524;5.080;2022-07-11T08:26:13;18.51;84.32
66343;DHT22;53144;51.524;5.080;2022-07-11T08:28:38;18.67;83.13
66343;DHT22;53144;51.524;5.080;2022-07-11T08:31:04;18.68;83.50
66343;DHT22;53144;51.524;5.080;2022-07-11T08:33:29;18.41;84.78
66343;DHT22;53144;51.524;5.080;2022-07-11T08:35:55;18.43;84.16
66343;DHT22;53144;51.524;5.080;2022-07-11T08:38:20;18.47;84.02
66343;DHT22;53144;51.524;5.080;2022-07-11T08:40:48;18.57;84.33
66343;DHT22;53144;51.524;5.080;2022-07-11T08:43:15;18.26;84.87
66343;DHT22;53144;51.524;5.080;2022-07-11T08:45:42;18.34;85.16
66343;DHT22;53144;51.524;5.080;2022-07-11T08:48:08;18.62;84.33
66343;DHT22;53144;51.524;5.080;2022-07-11T08:50:36;18.61;84.52
66343;DHT22;53144;51.524;5.080;2022-07-11T08:53:05;18.52;85.03
66343;DHT22;53144;51.524;5.080;2022-07-11T08:55:30;18.69;84.49
66343;DHT22;53144;51.524;5.080;2022-07-11T08:57:56;18.79;83.54
66343;DHT22;53144;51.524;5.080;2022-07-11T09:00:21;18.79;83.81
66343;DHT22;53144;51.524;5.080;2022-07-11T09:02:48;18.73;83.95
66343;DHT22;53144;51.524;5.080;2022-07-11T09:05:14;18.98;82.37
66343;DHT22;53144;51.524;5.080;2022-07-11T09:07:47;19.10;83.23
66343;DHT22;53144;51.524;5.080;2022-07-11T09:10:14;19.19;82.17
66343;DHT22;53144;51.524;5.080;2022-07-11T09:13:03;19.33;82.67
66343;DHT22;53144;51.524;5.080;2022-07-11T09:18:03;19.27;82.65
66343;DHT22;53144;51.524;5.080;2022-07-11T09:20:28;19.16;81.96
66343;DHT22;53144;51.524;5.080;2022-07-11T09:23:20;19.33;81.55
66343;DHT22;53144;51.524;5.080;2022-07-11T09:26:05;19.49;81.82
66343;DHT22;53144;51.524;5.080;2022-07-11T09:28:31;19.68;80.56
66343;DHT22;53144;51.524;5.080;2022-07-11T09:30:56;19.84;80.20
66343;DHT22;53144;51.524;5.080;2022-07-11T09:33:21;20.32;78.20
66343;DHT22;53144;51.524;5.080;2022-07-11T09:35:47;20.45;77.81
66343;DHT22;53144;51.524;5.080;2022-07-11T09:38:15;20.52;78.50
66343;DHT22;53144;51.524;5.080;2022-07-11T09:40:47;20.07;79.11
66343;DHT22;53144;51.524;5.080;2022-07-11T09:43:13;20.18;79.21
66343;DHT22;53144;51.524;5.080;2022-07-11T09:45:39;20.25;78.04
66343;DHT22;53144;51.524;5.080;2022-07-11T09:48:11;19.87;79.66
66343;DHT22;53144;51.524;5.080;2022-07-11T09:50:37;20.15;78.92
66343;DHT22;53144;51.524;5.080;2022-07-11T09:53:09;20.86;77.51
66343;DHT22;53144;51.524;5.080;2022-07-11T09:55:40;21.23;75.37
66343;DHT22;53144;51.524;5.080;2022-07-11T09:58:15;21.01;75.62
66343;DHT22;53144;51.524;5.080;2022-07-11T10:00:41;20.86;77.41
66343;DHT22;53144;51.524;5.080;2022-07-11T10:03:08;21.21;74.11
66343;DHT22;53144;51.524;5.080;2022-07-11T10:05:35;21.15;75.28
66343;DHT22;53144;51.524;5.080;2022-07-11T10:08:01;21.51;74.37
66343;DHT22;53144;51.524;5.080;2022-07-11T10:10:29;21.44;72.77
66343;DHT22;53144;51.524;5.080;2022-07-11T10:12:55;21.62;71.64
66343;DHT22;53144;51.524;5.080;2022-07-11T10:15:29;21.99;72.06
66343;DHT22;53144;51.524;5.080;2022-07-11T10:21:00;20.97;74.10
66343;DHT22;53144;51.524;5.080;2022-07-11T10:23:37;20.94;74.72
66343;DHT22;53144;51.524;5.080;2022-07-11T10:29:10;20.91;74.53
66343;DHT22;53144;51.524;5.080;2022-07-11T10:31:39;20.72;75.19
66343;DHT22;53144;51.524;5.080;2022-07-11T10:34:10;21.56;72.18
66343;DHT22;53144;51.524;5.080;2022-07-11T10:36:41;22.36;69.96
66343;DHT22;53144;51.524;5.080;2022-07-11T10:39:22;22.33;69.55
66343;DHT22;53144;51.524;5.080;2022-07-11T10:41:53;22.34;70.72
66343;DHT22;53144;51.524;5.080;2022-07-11T10:44:18;22.21;71.06
66343;DHT22;53144;51.524;5.080;2022-07-11T10:46:44;21.46;71.66
66343;DHT22;53144;51.524;5.080;2022-07-11T10:52:03;22.68;72.82
66343;DHT22;53144;51.524;5.080;2022-07-11T10:57:29;21.93;72.21
66343;DHT22;53144;51.524;5.080;2022-07-11T11:00:00;22.11;72.09
66343;DHT22;53144;51.524;5.080;2022-07-11T11:02:27;22.16;70.16
66343;DHT22;53144;51.524;5.080;2022-07-11T11:04:54;22.00;70.43
66343;DHT22;53144;51.524;5.080;2022-07-11T11:07:38;22.04;67.51
66343;DHT22;53144;51.524;5.080;2022-07-11T11:10:07;22.29;69.69
66343;DHT22;53144;51.524;5.080;2022-07-11T11:15:59;24.08;64.04
66343;DHT22;53144;51.524;5.080;2022-07-11T11:26:46;22.14;67.68
66343;DHT22;53144;51.524;5.080;2022-07-11T11:29:18;21.71;66.82
66343;DHT22;53144;51.524;5.080;2022-07-11T11:31:48;21.97;68.20
66343;DHT22;53144;51.524;5.080;2022-07-11T11:34:14;22.40;68.25
66343;DHT22;53144;51.524;5.080;2022-07-11T11:36:40;22.91;67.61
66343;DHT22;53144;51.524;5.080;2022-07-11T11:39:06;22.73;68.41
66343;DHT22;53144;51.524;5.080;2022-07-11T11:41:32;23.33;66.64
66343;DHT22;53144;51.524;5.080;2022-07-11T11:44:00;23.82;64.03
66343;DHT22;53144;51.524;5.080;2022-07-11T11:46:27;23.75;65.89
66343;DHT22;53144;51.524;5.080;2022-07-11T11:49:04;23.78;65.38
66343;DHT22;53144;51.524;5.080;2022-07-11T11:51:31;23.57;64.83
66343;DHT22;53144;51.524;5.080;2022-07-11T11:54:01;22.94;66.60
66343;DHT22;53144;51.524;5.080;2022-07-11T11:56:31;23.02;66.95
66343;DHT22;53144;51.524;5.080;2022-07-11T11:59:10;22.54;69.06
66343;DHT22;53144;51.524;5.080;2022-07-11T12:01:40;22.31;70.10
66343;DHT22;53144;51.524;5.080;2022-07-11T12:04:08;22.69;68.31
66343;DHT22;53144;51.524;5.080;2022-07-11T12:06:41;23.43;64.88
66343;DHT22;53144;51.524;5.080;2022-07-11T12:09:12;25.39;62.81
66343;DHT22;53144;51.524;5.080;2022-07-11T12:11:39;26.98;54.15
66343;DHT22;53144;51.524;5.080;2022-07-11T12:14:06;26.91;54.75
66343;DHT22;53144;51.524;5.080;2022-07-11T12:16:40;26.16;61.13
66343;DHT22;53144;51.524;5.080;2022-07-11T12:21:41;25.81;59.95
66343;DHT22;53144;51.524;5.080;2022-07-11T12:24:09;25.38;59.44
66343;DHT22;53144;51.524;5.080;2022-07-11T12:26:36;24.67;60.58
66343;DHT22;53144;51.524;5.080;2022-07-11T12:29:14;24.97;61.34
66343;DHT22;53144;51.524;5.080;2022-07-11T12:34:17;26.91;57.86
66343;DHT22;53144;51.524;5.080;2022-07-11T12:36:43;26.74;53.96
66343;DHT22;53144;51.524;5.080;2022-07-11T12:39:09;26.14;59.93
66343;DHT22;53144;51.524;5.080;2022-07-11T12:41:35;25.08;61.28
66343;DHT22;53144;51.524;5.080;2022-07-11T12:44:01;25.42;58.53
66343;DHT22;53144;51.524;5.080;2022-07-11T12:46:45;24.83;60.28
66343;DHT22;53144;51.524;5.080;2022-07-11T12:49:15;24.14;62.13
66343;DHT22;53144;51.524;5.080;2022-07-11T12:51:42;24.05;64.20
66343;DHT22;53144;51.524;5.080;2022-07-11T12:54:10;23.77;64.01
66343;DHT22;53144;51.524;5.080;2022-07-11T12:56:37;23.53;64.19
66343;DHT22;53144;51.524;5.080;2022-07-11T12:59:03;24.45;62.77
66343;DHT22;53144;51.524;5.080;2022-07-11T13:01:33;24.49;62.29
66343;DHT22;53144;51.524;5.080;2022-07-11T13:03:59;23.97;64.25
66343;DHT22;53144;51.524;5.080;2022-07-11T13:06:24;24.59;62.75
66343;DHT22;53144;51.524;5.080;2022-07-11T13:09:09;25.78;59.29
66343;DHT22;53144;51.524;5.080;2022-07-11T13:11:35;26.39;56.41
66343;DHT22;53144;51.524;5.080;2022-07-11T13:14:00;25.03;61.54
66343;DHT22;53144;51.524;5.080;2022-07-11T13:16:26;25.00;61.48
66343;DHT22;53144;51.524;5.080;2022-07-11T13:18:52;24.70;61.61
66343;DHT22;53144;51.524;5.080;2022-07-11T13:21:18;25.89;61.30
66343;DHT22;53144;51.524;5.080;2022-07-11T13:23:43;26.40;58.45
66343;DHT22;53144;51.524;5.080;2022-07-11T13:26:10;26.36;59.31
66343;DHT22;53144;51.524;5.080;2022-07-11T13:28:37;27.71;55.53
66343;DHT22;53144;51.524;5.080;2022-07-11T13:31:03;26.68;56.63
66343;DHT22;53144;51.524;5.080;2022-07-11T13:33:30;25.31;60.50
66343;DHT22;53144;51.524;5.080;2022-07-11T13:35:56;25.65;60.88
66343;DHT22;53144;51.524;5.080;2022-07-11T13:38:21;25.41;60.24
66343;DHT22;53144;51.524;5.080;2022-07-11T13:40:47;25.42;59.62
66343;DHT22;53144;51.524;5.080;2022-07-11T13:43:13;26.30;58.31
66343;DHT22;53144;51.524;5.080;2022-07-11T13:45:40;25.99;57.04
66343;DHT22;53144;51.524;5.080;2022-07-11T13:48:06;25.46;57.53
66343;DHT22;53144;51.524;5.080;2022-07-11T13:50:32;27.03;53.92
66343;DHT22;53144;51.524;5.080;2022-07-11T13:52:58;25.86;58.19
66343;DHT22;53144;51.524;5.080;2022-07-11T13:55:24;26.92;56.68
66343;DHT22;53144;51.524;5.080;2022-07-11T13:57:58;26.13;58.54
66343;DHT22;53144;51.524;5.080;2022-07-11T14:00:24;26.84;57.96
66343;DHT22;53144;51.524;5.080;2022-07-11T14:02:50;27.84;54.40
66343;DHT22;53144;51.524;5.080;2022-07-11T14:05:17;28.63;53.24
66343;DHT22;53144;51.524;5.080;2022-07-11T14:07:44;28.63;51.85
66343;DHT22;53144;51.524;5.080;2022-07-11T14:10:09;27.36;56.11
66343;DHT22;53144;51.524;5.080;2022-07-11T14:12:35;27.74;55.59
66343;DHT22;53144;51.524;5.080;2022-07-11T14:15:00;28.55;53.74
66343;DHT22;53144;51.524;5.080;2022-07-11T14:17:26;28.17;53.00
66343;DHT22;53144;51.524;5.080;2022-07-11T14:19:54;26.72;58.22
66343;DHT22;53144;51.524;5.080;2022-07-11T14:22:21;27.29;54.64
66343;DHT22;53144;51.524;5.080;2022-07-11T14:24:46;26.91;55.78
66343;DHT22;53144;51.524;5.080;2022-07-11T14:27:14;25.04;61.19
66343;DHT22;53144;51.524;5.080;2022-07-11T14:29:40;25.17;61.87
66343;DHT22;53144;51.524;5.080;2022-07-11T14:32:06;24.90;62.13
66343;DHT22;53144;51.524;5.080;2022-07-11T14:34:32;24.93;62.72
66343;DHT22;53144;51.524;5.080;2022-07-11T14:36:57;24.96;63.45
66343;DHT22;53144;51.524;5.080;2022-07-11T14:39:22;24.77;63.38
66343;DHT22;53144;51.524;5.080;2022-07-11T14:41:49;25.21;61.06
66343;DHT22;53144;51.524;5.080;2022-07-11T14:44:15;24.40;63.77
66343;DHT22;53144;51.524;5.080;2022-07-11T14:46:40;24.77;62.90
66343;DHT22;53144;51.524;5.080;2022-07-11T14:49:07;24.59;62.86
66343;DHT22;53144;51.524;5.080;2022-07-11T14:51:34;24.36;64.15
66343;DHT22;53144;51.524;5.080;2022-07-11T14:53:59;24.40;64.35
66343;DHT22;53144;51.524;5.080;2022-07-11T14:56:24;24.05;65.83
66343;DHT22;53144;51.524;5.080;2022-07-11T14:58:50;24.48;62.64
66343;DHT22;53144;51.524;5.080;2022-07-11T15:01:15;24.52;63.13
66343;DHT22;53144;51.524;5.080;2022-07-11T15:03:41;24.19;64.03
66343;DHT22;53144;51.524;5.080;2022-07-11T15:06:11;24.35;64.43
66343;DHT22;53144;51.524;5.080;2022-07-11T15:08:37;24.32;64.71
66343;DHT22;53144;51.524;5.080;2022-07-11T15:11:21;24.24;64.49
66343;DHT22;53144;51.524;5.080;2022-07-11T15:14:05;24.14;64.96
66343;DHT22;53144;51.524;5.080;2022-07-11T15:16:32;24.01;64.83
66343;DHT22;53144;51.524;5.080;2022-07-11T15:18:59;24.01;65.33
66343;DHT22;53144;51.524;5.080;2022-07-11T15:21:25;23.66;65.35
66343;DHT22;53144;51.524;5.080;2022-07-11T15:23:50;23.68;66.42
66343;DHT22;53144;51.524;5.080;2022-07-11T15:26:16;23.46;65.65
66343;DHT22;53144;51.524;5.080;2022-07-11T15:28:42;23.61;65.42
66343;DHT22;53144;51.524;5.080;2022-07-11T15:31:09;23.73;64.08
66343;DHT22;53144;51.524;5.080;2022-07-11T15:33:34;23.78;65.59
66343;DHT22;53144;51.524;5.080;2022-07-11T15:36:00;23.60;67.23
66343;DHT22;53144;51.524;5.080;2022-07-11T15:38:25;23.73;65.78
66343;DHT22;53144;51.524;5.080;2022-07-11T15:40:51;23.74;66.14
66343;DHT22;53144;51.524;5.080;2022-07-11T15:43:17;23.61;65.11
66343;DHT22;53144;51.524;5.080;2022-07-11T15:45:42;23.70;65.88
66343;DHT22;53144;51.524;5.080;2022-07-11T15:48:08;23.73;65.88
66343;DHT22;53144;51.524;5.080;2022-07-11T15:50:34;23.67;65.64
66343;DHT22;53144;51.524;5.080;2022-07-11T15:52:59;23.58;66.18
66343;DHT22;53144;51.524;5.080;2022-07-11T15:55:45;23.85;65.97
66343;DHT22;53144;51.524;5.080;2022-07-11T15:58:12;24.00;64.56
66343;DHT22;53144;51.524;5.080;2022-07-11T16:00:37;23.95;65.77